sensor_id;sensor_type;location;lat;lon;timestamp;pressure;altitude;pressure_sealevel;temperature;humidity
62458;BME280;48509;52.122;5.250;2024-01-30T00:00:57;102540.00000000001;;;8.99;100.0
62458;BME280;48509;52.122;5.250;2024-01-30T00:02:33;102540.00000000001;;;8.99;100.0
62458;BME280;48509;52.122;5.250;2024-01-30T00:04:09;102542.0;;;9.05;100.0
62458;BME280;48509;52.122;5.250;2024-01-30T00:07:21;102539.00000000001;;;8.92;100.0
62458;BME280;48509;52.122;5.250;2024-01-30T00:08:57;102541.00000000001;;;9.07;100.0
62458;BME280;48509;52.122;5.250;2024-01-30T00:10:34;102541.00000000001;;;9.14;100.0
62458;BME280;48509;52.122;5.250;2024-01-30T00:13:46;102541.00000000001;;;9.14;100.0
62458;BME280;48509;52.122;5.250;2024-01-30T00:15:22;102540.00000000001;;;9.07;100.0
62458;BME280;48509;52.122;5.250;2024-01-30T00:16:58;102539.00000000001;;;8.9;100.0
62458;BME280;48509;52.122;5.250;2024-01-30T00:18:35;102539.00000000001;;;8.96;100.0
62458;BME280;48509;52.122;5.250;2024-01-30T00:21:47;102540.00000000001;;;8.86;100.0
62458;BME280;48509;52.122;5.250;2024-01-30T00:23:24;102529.0;;;8.91;100.0
62458;BME280;48509;52.122;5.250;2024-01-30T00:25:00;102534.99999999999;;;8.82;100.0
62458;BME280;48509;52.122;5.250;2024-01-30T00:28:12;102529.0;;;8.77;100.0
62458;BME280;48509;52.122;5.250;2024-01-30T00:29:48;102533.0;;;8.68;100.0
62458;BME280;48509;52.122;5.250;2024-01-30T00:31:24;102529.0;;;8.84;100.0
62458;BME280;48509;52.122;5.250;2024-01-30T00:34:36;102528.0;;;8.76;100.0
62458;BME280;48509;52.122;5.250;2024-01-30T00:36:13;102526.0;;;8.89;100.0
62458;BME280;48509;52.122;5.250;2024-01-30T00:37:49;102530.0;;;9.01;100.0
62458;BME280;48509;52.122;5.250;2024-01-30T00:41:04;102523.0;;;9.02;100.0
62458;BME280;48509;52.122;5.250;2024-01-30T00:42:40;102523.0;;;9.0;100.0
62458;BME280;48509;52.122;5.250;2024-01-30T00:44:16;102522.0;;;9.03;100.0
62458;BME280;48509;52.122;5.250;2024-01-30T00:45:52;102524.0;;;8.99;100.0
62458;BME280;48509;52.122;5.250;2024-01-30T00:49:04;102526.0;;;9.0;100.0
62458;BME280;48509;52.122;5.250;2024-01-30T00:50:41;102530.0;;;9.03;100.0
62458;BME280;48509;52.122;5.250;2024-01-30T00:52:17;102533.0;;;9.07;100.0
62458;BME280;48509;52.122;5.250;2024-01-30T00:55:29;102528.0;;;9.06;100.0
62458;BME280;48509;52.122;5.250;2024-01-30T00:57:05;102527.0;;;9.03;100.0
62458;BME280;48509;52.122;5.250;2024-01-30T00:58:41;102521.0;;;8.85;100.0
62458;BME280;48509;52.122;5.250;2024-01-30T01:01:54;102521.0;;;8.73;100.0
62458;BME280;48509;52.122;5.250;2024-01-30T01:03:33;102521.0;;;8.75;100.0
62458;BME280;48509;52.122;5.250;2024-01-30T01:05:09;102519.0;;;8.81;100.0
62458;BME280;48509;52.122;5.250;2024-01-30T01:06:45;102518.0;;;8.83;100.0
62458;BME280;48509;52.122;5.250;2024-01-30T01:09:57;102526.0;;;8.83;100.0
62458;BME280;48509;52.122;5.250;2024-01-30T01:11:33;102517.0;;;8.85;100.0
62458;BME280;48509;52.122;5.250;2024-01-30T01:13:09;102513.00000000001;;;8.81;100.0
62458;BME280;48509;52.122;5.250;2024-01-30T01:16:21;102509.99999999999;;;8.67;100.0
62458;BME280;48509;52.122;5.250;2024-01-30T01:17:58;102500.0;;;8.57;100.0
62458;BME280;48509;52.122;5.250;2024-01-30T01:19:34;102491.00000000001;;;8.53;100.0
62458;BME280;48509;52.122;5.250;2024-01-30T01:22:46;102492.0;;;8.56;100.0
62458;BME280;48509;52.122;5.250;2024-01-30T01:24:22;102492.0;;;8.77;100.0
62458;BME280;48509;52.122;5.250;2024-01-30T01:26:01;102496.0;;;8.72;100.0
62458;BME280;48509;52.122;5.250;2024-01-30T01:27:37;102497.0;;;8.72;100.0
62458;BME280;48509;52.122;5.250;2024-01-30T01:30:49;102496.0;;;8.8;100.0
62458;BME280;48509;52.122;5.250;2024-01-30T01:32:26;102497.0;;;8.81;100.0
62458;BME280;48509;52.122;5.250;2024-01-30T01:34:02;102496.0;;;8.88;100.0
62458;BME280;48509;52.122;5.250;2024-01-30T01:37:14;102494.0;;;8.9;100.0
62458;BME280;48509;52.122;5.250;2024-01-30T01:38:50;102502.0;;;8.88;100.0
62458;BME280;48509;52.122;5.250;2024-01-30T01:40:27;102504.0;;;8.98;100.0
62458;BME280;48509;52.122;5.250;2024-01-30T01:43:39;102498.0;;;8.99;100.0
62458;BME280;48509;52.122;5.250;2024-01-30T01:45:16;102495.0;;;8.85;100.0
62458;BME280;48509;52.122;5.250;2024-01-30T01:46:52;102493.0;;;8.92;100.0
62458;BME280;48509;52.122;5.250;2024-01-30T01:50:05;102495.0;;;8.85;100.0
62458;BME280;48509;52.122;5.250;2024-01-30T01:51:42;102501.0;;;8.82;100.0
62458;BME280;48509;52.122;5.250;2024-01-30T01:53:18;102498.0;;;8.76;100.0
62458;BME280;48509;52.122;5.250;2024-01-30T01:54:54;102497.0;;;8.77;100.0
62458;BME280;48509;52.122;5.250;2024-01-30T01:58:09;102492.0;;;8.64;100.0
62458;BME280;48509;52.122;5.250;2024-01-30T01:59:46;102492.0;;;8.58;100.0
62458;BME280;48509;52.122;5.250;2024-01-30T02:01:23;102486.99999999999;;;8.58;100.0
62458;BME280;48509;52.122;5.250;2024-01-30T02:04:40;102488.00000000001;;;8.55;100.0
62458;BME280;48509;52.122;5.250;2024-01-30T02:06:17;102483.0;;;8.5;100.0
62458;BME280;48509;52.122;5.250;2024-01-30T02:07:54;102483.99999999999;;;8.43;100.0
62458;BME280;48509;52.122;5.250;2024-01-30T02:09:31;102486.99999999999;;;8.55;100.0
62458;BME280;48509;52.122;5.250;2024-01-30T02:12:43;102488.00000000001;;;8.52;100.0
62458;BME280;48509;52.122;5.250;2024-01-30T02:14:19;102483.99999999999;;;8.56;100.0
62458;BME280;48509;52.122;5.250;2024-01-30T02:15:55;102478.0;;;8.48;100.0
62458;BME280;48509;52.122;5.250;2024-01-30T02:19:07;102483.0;;;8.66;100.0
62458;BME280;48509;52.122;5.250;2024-01-30T02:20:43;102488.00000000001;;;8.61;100.0
62458;BME280;48509;52.122;5.250;2024-01-30T02:22:20;102492.0;;;8.68;100.0
62458;BME280;48509;52.122;5.250;2024-01-30T02:25:38;102499.0;;;8.8;100.0
62458;BME280;48509;52.122;5.250;2024-01-30T02:27:15;102503.0;;;8.81;100.0
62458;BME280;48509;52.122;5.250;2024-01-30T02:28:51;102506.0;;;8.85;100.0
62458;BME280;48509;52.122;5.250;2024-01-30T02:30:27;102499.0;;;8.77;100.0
62458;BME280;48509;52.122;5.250;2024-01-30T02:33:40;102496.0;;;8.65;100.0
62458;BME280;48509;52.122;5.250;2024-01-30T02:35:16;102495.0;;;8.65;100.0
62458;BME280;48509;52.122;5.250;2024-01-30T02:36:52;102493.0;;;8.78;100.0
62458;BME280;48509;52.122;5.250;2024-01-30T02:40:06;102495.0;;;8.89;100.0
62458;BME280;48509;52.122;5.250;2024-01-30T02:41:43;102483.99999999999;;;8.65;100.0
62458;BME280;48509;52.122;5.250;2024-01-30T02:43:19;102476.0;;;8.63;100.0
62458;BME280;48509;52.122;5.250;2024-01-30T02:46:31;102467.0;;;8.48;100.0
62458;BME280;48509;52.122;5.250;2024-01-30T02:48:07;102468.0;;;8.51;100.0
62458;BME280;48509;52.122;5.250;2024-01-30T02:49:43;102467.0;;;8.45;100.0
62458;BME280;48509;52.122;5.250;2024-01-30T02:51:19;102470.0;;;8.55;100.0
62458;BME280;48509;52.122;5.250;2024-01-30T02:54:35;102476.0;;;8.64;100.0
62458;BME280;48509;52.122;5.250;2024-01-30T02:56:11;102473.0;;;8.76;100.0
62458;BME280;48509;52.122;5.250;2024-01-30T02:57:47;102468.0;;;8.45;100.0
62458;BME280;48509;52.122;5.250;2024-01-30T03:00:59;102463.00000000001;;;8.48;100.0
62458;BME280;48509;52.122;5.250;2024-01-30T03:02:36;102465.00000000001;;;8.44;100.0
62458;BME280;48509;52.122;5.250;2024-01-30T03:04:12;102467.0;;;8.4;100.0
62458;BME280;48509;52.122;5.250;2024-01-30T03:07:25;102465.00000000001;;;8.39;100.0
62458;BME280;48509;52.122;5.250;2024-01-30T03:09:01;102456.0;;;8.44;100.0
62458;BME280;48509;52.122;5.250;2024-01-30T03:10:37;102449.0;;;8.41;100.0
62458;BME280;48509;52.122;5.250;2024-01-30T03:12:13;102451.0;;;8.44;100.0
62458;BME280;48509;52.122;5.250;2024-01-30T03:15:25;102453.0;;;8.44;100.0
62458;BME280;48509;52.122;5.250;2024-01-30T03:17:02;102447.0;;;8.68;100.0
62458;BME280;48509;52.122;5.250;2024-01-30T03:18:38;102447.0;;;8.71;100.0
62458;BME280;48509;52.122;5.250;2024-01-30T03:21:50;102453.0;;;8.57;100.0
62458;BME280;48509;52.122;5.250;2024-01-30T03:23:26;102452.0;;;8.69;100.0
62458;BME280;48509;52.122;5.250;2024-01-30T03:25:03;102455.0;;;8.73;100.0
62458;BME280;48509;52.122;5.250;2024-01-30T03:28:15;102456.0;;;8.75;100.0
62458;BME280;48509;52.122;5.250;2024-01-30T03:29:51;102454.0;;;8.82;100.0
62458;BME280;48509;52.122;5.250;2024-01-30T03:31:27;102445.0;;;8.84;100.0
62458;BME280;48509;52.122;5.250;2024-01-30T03:34:40;102442.0;;;8.69;100.0
62458;BME280;48509;52.122;5.250;2024-01-30T03:36:16;102436.99999999999;;;8.66;100.0
62458;BME280;48509;52.122;5.250;2024-01-30T03:37:52;102436.99999999999;;;8.74;100.0
62458;BME280;48509;52.122;5.250;2024-01-30T03:39:28;102429.0;;;8.8;100.0
62458;BME280;48509;52.122;5.250;2024-01-30T03:42:43;102430.0;;;8.81;100.0
62458;BME280;48509;52.122;5.250;2024-01-30T03:44:19;102422.0;;;8.84;100.0
62458;BME280;48509;52.122;5.250;2024-01-30T03:45:55;102425.0;;;8.82;100.0
62458;BME280;48509;52.122;5.250;2024-01-30T03:49:09;102429.0;;;9.03;100.0
62458;BME280;48509;52.122;5.250;2024-01-30T03:50:46;102419.0;;;8.93;100.0
62458;BME280;48509;52.122;5.250;2024-01-30T03:52:22;102421.0;;;9.07;100.0
62458;BME280;48509;52.122;5.250;2024-01-30T03:55:34;102438.00000000001;;;8.78;100.0
62458;BME280;48509;52.122;5.250;2024-01-30T03:57:10;102430.0;;;8.77;100.0
62458;BME280;48509;52.122;5.250;2024-01-30T03:58:46;102434.99999999999;;;8.94;100.0
62458;BME280;48509;52.122;5.250;2024-01-30T04:00:22;102433.0;;;8.96;100.0
62458;BME280;48509;52.122;5.250;2024-01-30T04:03:36;102433.0;;;8.97;100.0
62458;BME280;48509;52.122;5.250;2024-01-30T04:05:12;102433.99999999999;;;9.05;100.0
62458;BME280;48509;52.122;5.250;2024-01-30T04:06:48;102438.00000000001;;;9.14;100.0
62458;BME280;48509;52.122;5.250;2024-01-30T04:10:00;102438.00000000001;;;9.11;100.0
62458;BME280;48509;52.122;5.250;2024-01-30T04:11:36;102442.0;;;9.15;100.0
62458;BME280;48509;52.122;5.250;2024-01-30T04:13:13;102440.00000000001;;;9.07;100.0
62458;BME280;48509;52.122;5.250;2024-01-30T04:16:25;102442.0;;;9.06;100.0
62458;BME280;48509;52.122;5.250;2024-01-30T04:18:01;102434.99999999999;;;9.13;100.0
62458;BME280;48509;52.122;5.250;2024-01-30T04:19:37;102432.0;;;9.07;100.0
62458;BME280;48509;52.122;5.250;2024-01-30T04:22:49;102433.0;;;9.18;100.0
62458;BME280;48509;52.122;5.250;2024-01-30T04:24:25;102431.0;;;9.24;100.0
62458;BME280;48509;52.122;5.250;2024-01-30T04:26:01;102432.0;;;9.19;100.0
62458;BME280;48509;52.122;5.250;2024-01-30T04:27:38;102420.0;;;9.26;100.0
62458;BME280;48509;52.122;5.250;2024-01-30T04:30:50;102422.0;;;9.31;100.0
62458;BME280;48509;52.122;5.250;2024-01-30T04:32:26;102418.0;;;9.39;100.0
62458;BME280;48509;52.122;5.250;2024-01-30T04:34:02;102424.0;;;9.31;100.0
62458;BME280;48509;52.122;5.250;2024-01-30T04:37:14;102404.0;;;9.48;100.0
62458;BME280;48509;52.122;5.250;2024-01-30T04:38:50;102406.0;;;9.5;100.0
62458;BME280;48509;52.122;5.250;2024-01-30T04:40:26;102399.0;;;9.53;100.0
62458;BME280;48509;52.122;5.250;2024-01-30T04:43:40;102398.0;;;9.48;100.0
62458;BME280;48509;52.122;5.250;2024-01-30T04:45:16;102406.0;;;9.41;100.0
62458;BME280;48509;52.122;5.250;2024-01-30T04:46:52;102406.0;;;9.48;100.0
62458;BME280;48509;52.122;5.250;2024-01-30T04:48:28;102407.0;;;9.5;100.0
62458;BME280;48509;52.122;5.250;2024-01-30T04:51:41;102406.0;;;9.51;100.0
62458;BME280;48509;52.122;5.250;2024-01-30T04:53:17;102404.0;;;9.49;100.0
62458;BME280;48509;52.122;5.250;2024-01-30T04:54:54;102409.99999999999;;;9.58;100.0
62458;BME280;48509;52.122;5.250;2024-01-30T04:58:09;102411.99999999999;;;9.51;100.0
62458;BME280;48509;52.122;5.250;2024-01-30T04:59:45;102407.0;;;9.56;100.0
62458;BME280;48509;52.122;5.250;2024-01-30T05:01:21;102404.0;;;9.56;100.0
62458;BME280;48509;52.122;5.250;2024-01-30T05:04:33;102401.0;;;9.67;100.0
62458;BME280;48509;52.122;5.250;2024-01-30T05:06:09;102408.0;;;9.68;100.0
62458;BME280;48509;52.122;5.250;2024-01-30T05:07:46;102409.99999999999;;;9.65;100.0
62458;BME280;48509;52.122;5.250;2024-01-30T05:09:22;102405.0;;;9.63;100.0
62458;BME280;48509;52.122;5.250;2024-01-30T05:12:36;102405.0;;;9.74;100.0
62458;BME280;48509;52.122;5.250;2024-01-30T05:14:12;102408.99999999999;;;9.65;100.0
62458;BME280;48509;52.122;5.250;2024-01-30T05:15:48;102408.0;;;9.73;100.0
62458;BME280;48509;52.122;5.250;2024-01-30T05:19:00;102401.0;;;9.89;100.0
62458;BME280;48509;52.122;5.250;2024-01-30T05:20:37;102398.0;;;9.83;100.0
62458;BME280;48509;52.122;5.250;2024-01-30T05:22:13;102397.0;;;9.72;100.0
62458;BME280;48509;52.122;5.250;2024-01-30T05:25:25;102397.0;;;9.88;100.0
62458;BME280;48509;52.122;5.250;2024-01-30T05:27:01;102392.0;;;9.93;100.0
62458;BME280;48509;52.122;5.250;2024-01-30T05:28:37;102391.0;;;9.9;100.0
62458;BME280;48509;52.122;5.250;2024-01-30T05:31:49;102386.0;;;10.0;100.0
62458;BME280;48509;52.122;5.250;2024-01-30T05:33:25;102389.0;;;9.98;100.0
62458;BME280;48509;52.122;5.250;2024-01-30T05:35:02;102400.0;;;9.92;100.0
62458;BME280;48509;52.122;5.250;2024-01-30T05:36:38;102406.0;;;9.94;100.0
62458;BME280;48509;52.122;5.250;2024-01-30T05:39:52;102401.0;;;10.07;100.0
62458;BME280;48509;52.122;5.250;2024-01-30T05:41:28;102407.0;;;10.0;100.0
62458;BME280;48509;52.122;5.250;2024-01-30T05:43:04;102403.0;;;10.09;100.0
62458;BME280;48509;52.122;5.250;2024-01-30T05:46:16;102397.0;;;10.06;100.0
62458;BME280;48509;52.122;5.250;2024-01-30T05:47:53;102400.0;;;10.08;100.0
62458;BME280;48509;52.122;5.250;2024-01-30T05:49:32;102398.0;;;10.09;100.0
62458;BME280;48509;52.122;5.250;2024-01-30T05:52:44;102403.0;;;10.13;100.0
62458;BME280;48509;52.122;5.250;2024-01-30T05:54:20;102402.0;;;10.06;100.0
62458;BME280;48509;52.122;5.250;2024-01-30T05:55:56;102404.0;;;10.02;100.0
62458;BME280;48509;52.122;5.250;2024-01-30T05:57:32;102406.0;;;10.09;100.0
62458;BME280;48509;52.122;5.250;2024-01-30T06:00:45;102404.0;;;10.06;100.0
62458;BME280;48509;52.122;5.250;2024-01-30T06:02:21;102408.0;;;9.99;100.0
62458;BME280;48509;52.122;5.250;2024-01-30T06:03:57;102406.0;;;10.14;100.0
62458;BME280;48509;52.122;5.250;2024-01-30T06:07:09;102409.99999999999;;;10.07;100.0
62458;BME280;48509;52.122;5.250;2024-01-30T06:08:45;102413.00000000001;;;10.07;100.0
62458;BME280;48509;52.122;5.250;2024-01-30T06:10:21;102408.99999999999;;;10.09;100.0
62458;BME280;48509;52.122;5.250;2024-01-30T06:13:36;102409.99999999999;;;10.28;100.0
62458;BME280;48509;52.122;5.250;2024-01-30T06:15:12;102399.0;;;10.3;100.0
62458;BME280;48509;52.122;5.250;2024-01-30T06:16:49;102415.00000000001;;;10.27;100.0
62458;BME280;48509;52.122;5.250;2024-01-30T06:18:25;102414.00000000001;;;10.26;100.0
62458;BME280;48509;52.122;5.250;2024-01-30T06:21:37;102401.0;;;10.36;100.0
62458;BME280;48509;52.122;5.250;2024-01-30T06:23:13;102409.99999999999;;;10.23;100.0
62458;BME280;48509;52.122;5.250;2024-01-30T06:24:49;102406.0;;;10.19;100.0
62458;BME280;48509;52.122;5.250;2024-01-30T06:28:01;102409.99999999999;;;10.21;100.0
62458;BME280;48509;52.122;5.250;2024-01-30T06:29:37;102405.0;;;10.32;100.0
62458;BME280;48509;52.122;5.250;2024-01-30T06:31:13;102407.0;;;10.41;100.0
62458;BME280;48509;52.122;5.250;2024-01-30T06:34:26;102408.0;;;10.31;100.0
62458;BME280;48509;52.122;5.250;2024-01-30T06:36:02;102411.99999999999;;;10.29;100.0
62458;BME280;48509;52.122;5.250;2024-01-30T06:37:38;102417.0;;;10.26;100.0
62458;BME280;48509;52.122;5.250;2024-01-30T06:40:50;102418.0;;;10.27;100.0
62458;BME280;48509;52.122;5.250;2024-01-30T06:42:26;102424.0;;;10.35;100.0
62458;BME280;48509;52.122;5.250;2024-01-30T06:44:02;102426.0;;;10.3;100.0
62458;BME280;48509;52.122;5.250;2024-01-30T06:45:38;102426.0;;;10.29;100.0
62458;BME280;48509;52.122;5.250;2024-01-30T06:48:51;102433.99999999999;;;10.35;100.0
62458;BME280;48509;52.122;5.250;2024-01-30T06:50:27;102425.0;;;10.36;100.0
62458;BME280;48509;52.122;5.250;2024-01-30T06:52:04;102423.0;;;10.47;100.0
62458;BME280;48509;52.122;5.250;2024-01-30T06:55:17;102423.0;;;10.36;100.0
62458;BME280;48509;52.122;5.250;2024-01-30T06:56:53;102429.0;;;10.4;100.0
62458;BME280;48509;52.122;5.250;2024-01-30T06:58:29;102424.0;;;10.37;100.0
62458;BME280;48509;52.122;5.250;2024-01-30T07:01:42;102426.0;;;10.35;100.0
62458;BME280;48509;52.122;5.250;2024-01-30T07:03:19;102430.0;;;10.38;100.0
62458;BME280;48509;52.122;5.250;2024-01-30T07:04:55;102423.0;;;10.54;100.0
62458;BME280;48509;52.122;5.250;2024-01-30T07:06:31;102426.0;;;10.65;100.0
62458;BME280;48509;52.122;5.250;2024-01-30T07:09:43;102428.0;;;10.39;100.0
62458;BME280;48509;52.122;5.250;2024-01-30T07:11:19;102423.0;;;10.42;100.0
62458;BME280;48509;52.122;5.250;2024-01-30T07:12:55;102424.0;;;10.54;100.0
62458;BME280;48509;52.122;5.250;2024-01-30T07:16:07;102428.0;;;10.46;100.0
62458;BME280;48509;52.122;5.250;2024-01-30T07:17:43;102426.0;;;10.64;100.0
62458;BME280;48509;52.122;5.250;2024-01-30T07:19:20;102431.0;;;10.67;100.0
62458;BME280;48509;52.122;5.250;2024-01-30T07:22:32;102431.0;;;10.87;100.0
62458;BME280;48509;52.122;5.250;2024-01-30T07:24:09;102430.0;;;10.78;100.0
62458;BME280;48509;52.122;5.250;2024-01-30T07:25:45;102432.0;;;10.85;100.0
62458;BME280;48509;52.122;5.250;2024-01-30T07:28:57;102440.00000000001;;;10.8;100.0
62458;BME280;48509;52.122;5.250;2024-01-30T07:30:33;102441.00000000001;;;10.86;100.0
62458;BME280;48509;52.122;5.250;2024-01-30T07:32:09;102444.0;;;10.91;100.0
62458;BME280;48509;52.122;5.250;2024-01-30T07:33:46;102447.0;;;10.87;100.0
62458;BME280;48509;52.122;5.250;2024-01-30T07:36:58;102442.0;;;10.98;100.0
62458;BME280;48509;52.122;5.250;2024-01-30T07:38:34;102450.0;;;11.03;100.0
62458;BME280;48509;52.122;5.250;2024-01-30T07:40:10;102455.0;;;11.0;100.0
62458;BME280;48509;52.122;5.250;2024-01-30T07:43:22;102458.0;;;10.97;100.0
62458;BME280;48509;52.122;5.250;2024-01-30T07:44:58;102458.0;;;11.05;100.0
62458;BME280;48509;52.122;5.250;2024-01-30T07:46:34;102456.0;;;11.07;100.0
62458;BME280;48509;52.122;5.250;2024-01-30T07:49:47;102469.0;;;10.92;100.0
62458;BME280;48509;52.122;5.250;2024-01-30T07:51:23;102458.99999999999;;;10.89;100.0
62458;BME280;48509;52.122;5.250;2024-01-30T07:53:00;102469.0;;;10.95;100.0
62458;BME280;48509;52.122;5.250;2024-01-30T07:54:49;102466.00000000001;;;10.92;100.0
62458;BME280;48509;52.122;5.250;2024-01-30T07:58:03;102467.0;;;10.93;100.0
62458;BME280;48509;52.122;5.250;2024-01-30T07:59:38;102467.0;;;11.07;100.0
62458;BME280;48509;52.122;5.250;2024-01-30T08:01:15;102472.0;;;11.07;100.0
62458;BME280;48509;52.122;5.250;2024-01-30T08:04:29;102468.0;;;11.14;100.0
62458;BME280;48509;52.122;5.250;2024-01-30T08:06:05;102475.0;;;11.07;100.0
62458;BME280;48509;52.122;5.250;2024-01-30T08:07:42;102472.0;;;11.27;100.0
62458;BME280;48509;52.122;5.250;2024-01-30T08:09:18;102468.0;;;11.28;100.0
62458;BME280;48509;52.122;5.250;2024-01-30T08:12:30;102469.0;;;11.34;100.0
62458;BME280;48509;52.122;5.250;2024-01-30T08:14:06;102465.00000000001;;;11.42;100.0
62458;BME280;48509;52.122;5.250;2024-01-30T08:15:43;102461.99999999999;;;11.45;100.0
62458;BME280;48509;52.122;5.250;2024-01-30T08:18:55;102461.99999999999;;;11.44;100.0
62458;BME280;48509;52.122;5.250;2024-01-30T08:20:31;102464.00000000001;;;11.43;100.0
62458;BME280;48509;52.122;5.250;2024-01-30T08:22:07;102469.0;;;11.54;100.0
62458;BME280;48509;52.122;5.250;2024-01-30T08:25:19;102469.0;;;11.62;100.0
62458;BME280;48509;52.122;5.250;2024-01-30T08:26:55;102467.0;;;11.68;100.0
62458;BME280;48509;52.122;5.250;2024-01-30T08:28:31;102468.0;;;11.81;100.0
62458;BME280;48509;52.122;5.250;2024-01-30T08:31:44;102458.99999999999;;;11.83;100.0
62458;BME280;48509;52.122;5.250;2024-01-30T08:33:20;102463.00000000001;;;11.75;100.0
62458;BME280;48509;52.122;5.250;2024-01-30T08:34:57;102461.99999999999;;;11.81;100.0
62458;BME280;48509;52.122;5.250;2024-01-30T08:36:33;102461.99999999999;;;11.74;100.0
62458;BME280;48509;52.122;5.250;2024-01-30T08:39:45;102467.0;;;11.78;100.0
62458;BME280;48509;52.122;5.250;2024-01-30T08:41:21;102456.0;;;11.83;100.0
62458;BME280;48509;52.122;5.250;2024-01-30T08:42:57;102459.99999999999;;;11.86;100.0
62458;BME280;48509;52.122;5.250;2024-01-30T08:46:10;102466.00000000001;;;11.92;100.0
62458;BME280;48509;52.122;5.250;2024-01-30T08:47:45;102467.0;;;11.98;100.0
62458;BME280;48509;52.122;5.250;2024-01-30T08:49:22;102468.0;;;12.08;100.0
62458;BME280;48509;52.122;5.250;2024-01-30T08:52:34;102464.00000000001;;;12.07;100.0
62458;BME280;48509;52.122;5.250;2024-01-30T08:54:10;102466.00000000001;;;12.06;100.0
62458;BME280;48509;52.122;5.250;2024-01-30T08:55:46;102461.99999999999;;;12.12;100.0
62458;BME280;48509;52.122;5.250;2024-01-30T08:57:22;102467.0;;;12.26;100.0
62458;BME280;48509;52.122;5.250;2024-01-30T09:00:34;102469.0;;;12.21;100.0
62458;BME280;48509;52.122;5.250;2024-01-30T09:02:09;102470.0;;;12.15;100.0
62458;BME280;48509;52.122;5.250;2024-01-30T09:03:46;102476.0;;;12.22;100.0
62458;BME280;48509;52.122;5.250;2024-01-30T09:06:58;102472.0;;;12.32;100.0
62458;BME280;48509;52.122;5.250;2024-01-30T09:08:34;102475.0;;;12.44;100.0
62458;BME280;48509;52.122;5.250;2024-01-30T09:10:10;102472.0;;;12.42;100.0
62458;BME280;48509;52.122;5.250;2024-01-30T09:13:22;102469.0;;;12.49;100.0
62458;BME280;48509;52.122;5.250;2024-01-30T09:14:58;102471.0;;;12.52;100.0
62458;BME280;48509;52.122;5.250;2024-01-30T09:16:34;102476.0;;;12.53;100.0
62458;BME280;48509;52.122;5.250;2024-01-30T09:19:47;102474.0;;;12.62;100.0
62458;BME280;48509;52.122;5.250;2024-01-30T09:21:23;102484.99999999999;;;12.59;100.0
62458;BME280;48509;52.122;5.250;2024-01-30T09:23:04;102483.0;;;12.7;100.0
62458;BME280;48509;52.122;5.250;2024-01-30T09:24:40;102490.00000000001;;;12.53;100.0
62458;BME280;48509;52.122;5.250;2024-01-30T09:27:52;102486.99999999999;;;12.63;100.0
62458;BME280;48509;52.122;5.250;2024-01-30T09:29:28;102488.00000000001;;;12.68;100.0
62458;BME280;48509;52.122;5.250;2024-01-30T09:31:09;102492.0;;;12.63;100.0
62458;BME280;48509;52.122;5.250;2024-01-30T09:34:21;102494.0;;;12.51;100.0
62458;BME280;48509;52.122;5.250;2024-01-30T09:35:58;102492.0;;;12.48;100.0
62458;BME280;48509;52.122;5.250;2024-01-30T09:37:34;102493.0;;;12.45;100.0
62458;BME280;48509;52.122;5.250;2024-01-30T09:40:52;102493.0;;;12.51;100.0
62458;BME280;48509;52.122;5.250;2024-01-30T09:42:33;102495.0;;;12.5;100.0
62458;BME280;48509;52.122;5.250;2024-01-30T09:44:11;102494.0;;;12.6;100.0
62458;BME280;48509;52.122;5.250;2024-01-30T09:45:48;102496.0;;;12.67;100.0
62458;BME280;48509;52.122;5.250;2024-01-30T09:49:03;102507.0;;;12.72;100.0
62458;BME280;48509;52.122;5.250;2024-01-30T09:50:40;102508.0;;;12.71;100.0
62458;BME280;48509;52.122;5.250;2024-01-30T09:52:17;102499.0;;;12.7;100.0
62458;BME280;48509;52.122;5.250;2024-01-30T09:53:54;102511.99999999999;;;12.8;100.0
62458;BME280;48509;52.122;5.250;2024-01-30T09:57:06;102508.0;;;12.77;100.0
62458;BME280;48509;52.122;5.250;2024-01-30T09:58:42;102513.00000000001;;;12.86;100.0
62458;BME280;48509;52.122;5.250;2024-01-30T10:00:18;102511.99999999999;;;12.86;100.0
62458;BME280;48509;52.122;5.250;2024-01-30T10:03:31;102517.0;;;12.86;100.0
62458;BME280;48509;52.122;5.250;2024-01-30T10:05:08;102509.99999999999;;;12.6;100.0
62458;BME280;48509;52.122;5.250;2024-01-30T10:06:44;102506.0;;;12.69;100.0
62458;BME280;48509;52.122;5.250;2024-01-30T10:09:56;102508.0;;;12.78;100.0
62458;BME280;48509;52.122;5.250;2024-01-30T10:11:32;102505.0;;;12.76;100.0
62458;BME280;48509;52.122;5.250;2024-01-30T10:13:08;102504.0;;;12.78;100.0
62458;BME280;48509;52.122;5.250;2024-01-30T10:16:20;102514.00000000001;;;12.84;100.0
62458;BME280;48509;52.122;5.250;2024-01-30T10:17:57;102515.00000000001;;;12.91;100.0
62458;BME280;48509;52.122;5.250;2024-01-30T10:19:37;102508.99999999999;;;13.03;100.0
62458;BME280;48509;52.122;5.250;2024-01-30T10:21:13;102509.99999999999;;;12.96;100.0
62458;BME280;48509;52.122;5.250;2024-01-30T10:24:25;102507.0;;;13.03;100.0
62458;BME280;48509;52.122;5.250;2024-01-30T10:26:02;102503.0;;;13.09;100.0
62458;BME280;48509;52.122;5.250;2024-01-30T10:27:39;102505.0;;;13.25;100.0
62458;BME280;48509;52.122;5.250;2024-01-30T10:30:58;102516.00000000001;;;13.32;100.0
62458;BME280;48509;52.122;5.250;2024-01-30T10:32:34;102518.0;;;13.16;100.0
62458;BME280;48509;52.122;5.250;2024-01-30T10:34:10;102522.0;;;13.2;100.0
62458;BME280;48509;52.122;5.250;2024-01-30T10:35:47;102525.0;;;13.29;100.0
62458;BME280;48509;52.122;5.250;2024-01-30T10:39:02;102515.00000000001;;;13.18;100.0
62458;BME280;48509;52.122;5.250;2024-01-30T10:40:39;102515.00000000001;;;13.23;100.0
62458;BME280;48509;52.122;5.250;2024-01-30T10:42:17;102523.0;;;13.31;100.0
62458;BME280;48509;52.122;5.250;2024-01-30T10:45:40;102517.0;;;13.15;100.0
62458;BME280;48509;52.122;5.250;2024-01-30T10:47:24;102517.0;;;13.22;100.0